Time;durP1;ratioP1;P1;durP2;ratioP2;P2;SDS_P1;SDS_P2;PMS_P1;PMS_P2;Temp;Humidity;BMP_temperature;BMP_pressure;BME280_temperature;BME280_humidity;BME280_pressure;Samples;Min_cycle;Max_cycle;Signal;HPM_P1;HPM_P2
2022/11/22 00:00:27;;;;;;;4.80;2.80;;;;;;;;;;5013855;28;20387;-64
2022/11/22 00:02:54;;;;;;;4.07;2.30;;;;;;;;;;5014338;28;20241;-64
2022/11/22 00:05:22;;;;;;;2.77;2.40;;;;;;;;;;5015940;28;20208;-63
2022/11/22 00:07:50;;;;;;;2.43;2.00;;;;;;;;;;5009493;28;20955;-63
2022/11/22 00:10:18;;;;;;;3.00;2.30;;;;;;;;;;5013613;28;20297;-63
2022/11/22 00:12:45;;;;;;;2.87;2.33;;;;;;;;;;5015540;28;20225;-63
2022/11/22 00:15:12;;;;;;;3.47;2.50;;;;;;;;;;5013270;28;20297;-64
2022/11/22 00:17:40;;;;;;;4.30;2.87;;;;;;;;;;5011084;28;20347;-63
2022/11/22 00:20:10;;;;;;;6.77;2.97;;;;;;;;;;5010823;28;20202;-63
2022/11/22 00:22:38;;;;;;;3.93;3.10;;;;;;;;;;5021879;28;20311;-64
2022/11/22 00:25:10;;;;;;;3.90;3.00;;;;;;;;;;5053027;28;20205;-62
2022/11/22 00:27:38;;;;;;;3.90;3.20;;;;;;;;;;5053208;28;20309;-64
2022/11/22 00:30:06;;;;;;;7.30;3.57;;;;;;;;;;5049459;28;20293;-64
2022/11/22 00:32:33;;;;;;;4.57;3.20;;;;;;;;;;5031603;28;20667;-64
2022/11/22 00:35:00;;;;;;;4.07;3.50;;;;;;;;;;5043174;28;20272;-62
2022/11/22 00:37:28;;;;;;;8.03;4.43;;;;;;;;;;5017958;28;20218;-63
2022/11/22 00:39:56;;;;;;;6.97;5.10;;;;;;;;;;5020574;28;20210;-63
2022/11/22 00:42:23;;;;;;;8.40;5.37;;;;;;;;;;5013808;28;20234;-64
2022/11/22 00:44:50;;;;;;;9.97;6.40;;;;;;;;;;5019723;28;20210;-64
2022/11/22 00:47:18;;;;;;;10.30;7.00;;;;;;;;;;5013018;28;20583;-63
2022/11/22 00:49:45;;;;;;;11.60;7.33;;;;;;;;;;5016031;28;20198;-62
2022/11/22 00:52:13;;;;;;;12.63;7.63;;;;;;;;;;5012840;28;20307;-64
2022/11/22 00:54:40;;;;;;;12.83;7.50;;;;;;;;;;5032797;28;20286;-63
2022/11/22 00:57:08;;;;;;;10.87;7.67;;;;;;;;;;5040651;28;20715;-64
2022/11/22 00:59:35;;;;;;;13.83;8.30;;;;;;;;;;5031161;28;21060;-62
2022/11/22 01:02:02;;;;;;;11.57;7.80;;;;;;;;;;5035914;28;20337;-64
2022/11/22 01:04:30;;;;;;;12.57;8.20;;;;;;;;;;5035793;28;20668;-63
2022/11/22 01:06:57;;;;;;;11.67;8.20;;;;;;;;;;5062536;28;20289;-63
2022/11/22 01:09:24;;;;;;;13.37;9.80;;;;;;;;;;5009241;28;20272;-64
2022/11/22 01:11:52;;;;;;;17.70;9.77;;;;;;;;;;5046344;28;20229;-65
2022/11/22 01:14:20;;;;;;;14.53;10.10;;;;;;;;;;5014011;28;20680;-63
2022/11/22 01:16:47;;;;;;;13.90;9.97;;;;;;;;;;5033350;28;20592;-62
2022/11/22 01:19:15;;;;;;;17.67;10.70;;;;;;;;;;5013948;28;20269;-62
2022/11/22 01:21:42;;;;;;;17.17;12.10;;;;;;;;;;5013295;28;20246;-63
2022/11/22 01:24:10;;;;;;;19.50;12.20;;;;;;;;;;5032291;28;20267;-64
2022/11/22 01:26:37;;;;;;;16.20;12.10;;;;;;;;;;5023683;28;20253;-63
2022/11/22 01:29:05;;;;;;;19.00;12.83;;;;;;;;;;5055025;28;20203;-64
2022/11/22 01:31:33;;;;;;;18.30;13.00;;;;;;;;;;5042378;28;20210;-64
2022/11/22 01:34:00;;;;;;;17.20;13.83;;;;;;;;;;5014053;28;20232;-64
2022/11/22 01:36:28;;;;;;;15.70;12.70;;;;;;;;;;5027082;28;20210;-64
2022/11/22 01:38:55;;;;;;;21.27;14.10;;;;;;;;;;5044279;28;20715;-63
2022/11/22 01:41:22;;;;;;;20.67;13.70;;;;;;;;;;5016710;28;20236;-63
2022/11/22 01:43:50;;;;;;;18.23;14.77;;;;;;;;;;5046605;28;20217;-62
2022/11/22 01:46:37;;;;;;;19.00;13.97;;;;;;;;;;5028420;28;20348;-63
2022/11/22 01:49:13;;;;;;;21.20;14.33;;;;;;;;;;5027887;28;20585;-65
2022/11/22 01:51:43;;;;;;;21.73;14.73;;;;;;;;;;5011229;28;20967;-63
2022/11/22 01:54:13;;;;;;;18.53;14.73;;;;;;;;;;5014334;28;20202;-64
2022/11/22 01:56:43;;;;;;;20.43;14.60;;;;;;;;;;5012331;28;20653;-63
2022/11/22 01:59:13;;;;;;;20.83;15.23;;;;;;;;;;5017933;28;20254;-62
2022/11/22 02:01:40;;;;;;;24.57;14.57;;;;;;;;;;5015115;28;20609;-62
2022/11/22 02:04:09;;;;;;;19.43;14.03;;;;;;;;;;5048285;28;20206;-62
2022/11/22 02:07:04;;;;;;;17.87;13.53;;;;;;;;;;5014760;28;20246;-63
2022/11/22 02:09:32;;;;;;;14.80;12.00;;;;;;;;;;5025002;28;20297;-64
2022/11/22 02:12:00;;;;;;;17.07;12.30;;;;;;;;;;5014770;28;20237;-63
2022/11/22 02:14:29;;;;;;;13.37;11.43;;;;;;;;;;5039555;28;20222;-64
2022/11/22 02:16:56;;;;;;;13.03;10.53;;;;;;;;;;5012342;28;20669;-63
2022/11/22 02:19:29;;;;;;;12.30;9.90;;;;;;;;;;5040597;28;20276;-64
2022/11/22 02:22:01;;;;;;;12.83;9.77;;;;;;;;;;5030645;28;20232;-63
2022/11/22 02:24:33;;;;;;;12.00;9.90;;;;;;;;;;5030025;28;20202;-64
2022/11/22 02:27:05;;;;;;;11.97;8.80;;;;;;;;;;5029787;28;20297;-64
2022/11/22 02:29:32;;;;;;;11.90;9.03;;;;;;;;;;5008179;28;20214;-62
2022/11/22 02:32:00;;;;;;;10.17;8.40;;;;;;;;;;5029938;28;20226;-63
2022/11/22 02:34:27;;;;;;;11.50;7.43;;;;;;;;;;5008420;28;20206;-64
2022/11/22 02:36:54;;;;;;;10.77;7.53;;;;;;;;;;5012043;28;20206;-63
2022/11/22 02:39:28;;;;;;;7.97;7.17;;;;;;;;;;5024969;28;20658;-62
2022/11/22 02:41:57;;;;;;;7.60;6.70;;;;;;;;;;5024267;28;20618;-63
2022/11/22 02:44:25;;;;;;;8.37;7.37;;;;;;;;;;5013783;28;20640;-63
2022/11/22 02:46:53;;;;;;;9.53;6.77;;;;;;;;;;5001785;28;20232;-64
2022/11/22 02:49:22;;;;;;;7.83;6.87;;;;;;;;;;5033012;28;20594;-64
2022/11/22 02:51:49;;;;;;;6.40;5.80;;;;;;;;;;5025031;28;20245;-64
2022/11/22 02:54:17;;;;;;;6.77;6.13;;;;;;;;;;5025299;28;20284;-65
2022/11/22 02:56:45;;;;;;;6.87;6.17;;;;;;;;;;5016407;28;20297;-64
2022/11/22 02:59:12;;;;;;;7.87;5.90;;;;;;;;;;5030451;28;20641;-64
2022/11/22 03:01:40;;;;;;;7.93;6.00;;;;;;;;;;5042358;28;20222;-64
2022/11/22 03:04:07;;;;;;;6.50;5.60;;;;;;;;;;5056102;28;20202;-64
2022/11/22 03:06:35;;;;;;;6.20;5.47;;;;;;;;;;5044219;28;20718;-64
2022/11/22 03:09:02;;;;;;;6.37;5.53;;;;;;;;;;5021943;28;20269;-63
2022/11/22 03:11:29;;;;;;;6.33;5.50;;;;;;;;;;5024887;28;20241;-62
2022/11/22 03:13:57;;;;;;;6.87;5.13;;;;;;;;;;5009452;28;20202;-63
2022/11/22 03:16:24;;;;;;;6.30;4.97;;;;;;;;;;5024386;28;20205;-64
2022/11/22 03:18:51;;;;;;;5.30;4.77;;;;;;;;;;5024291;28;20225;-62
2022/11/22 03:21:19;;;;;;;4.50;4.10;;;;;;;;;;5023061;28;20206;-63
2022/11/22 03:23:46;;;;;;;5.13;4.63;;;;;;;;;;5014733;28;20328;-65
2022/11/22 03:26:14;;;;;;;5.40;4.10;;;;;;;;;;5046966;28;20206;-63
2022/11/22 03:28:41;;;;;;;7.27;4.10;;;;;;;;;;5012154;28;20217;-62
2022/11/22 03:31:08;;;;;;;7.17;3.70;;;;;;;;;;5016441;28;20241;-64
2022/11/22 03:33:36;;;;;;;6.60;2.80;;;;;;;;;;5035894;28;20289;-64
2022/11/22 03:36:03;;;;;;;5.43;3.63;;;;;;;;;;5036450;28;20283;-64
2022/11/22 03:38:31;;;;;;;8.70;4.17;;;;;;;;;;5013989;28;21458;-64
2022/11/22 03:40:58;;;;;;;3.20;2.37;;;;;;;;;;5032940;28;20291;-63
2022/11/22 03:43:25;;;;;;;7.43;2.73;;;;;;;;;;5016516;28;20257;-64
2022/11/22 03:45:53;;;;;;;3.10;2.50;;;;;;;;;;5017917;28;20231;-64
2022/11/22 03:48:20;;;;;;;6.30;3.37;;;;;;;;;;5015280;28;21074;-63
2022/11/22 03:50:48;;;;;;;5.70;2.77;;;;;;;;;;5032157;28;20289;-63
2022/11/22 03:53:15;;;;;;;6.70;2.37;;;;;;;;;;5034235;28;20222;-62
2022/11/22 03:55:43;;;;;;;3.83;2.60;;;;;;;;;;5013911;28;20216;-63
2022/11/22 03:58:11;;;;;;;4.23;2.10;;;;;;;;;;5035309;28;20329;-62
2022/11/22 04:00:38;;;;;;;4.57;2.20;;;;;;;;;;5016661;28;20587;-62
2022/11/22 04:03:05;;;;;;;5.53;2.30;;;;;;;;;;5017841;28;20284;-62
2022/11/22 04:05:33;;;;;;;4.90;1.83;;;;;;;;;;5029644;28;20279;-63
2022/11/22 04:08:00;;;;;;;4.17;2.43;;;;;;;;;;5013638;28;20413;-63
2022/11/22 04:10:29;;;;;;;7.03;1.70;;;;;;;;;;5006587;28;20305;-62
2022/11/22 04:13:00;;;;;;;4.17;1.80;;;;;;;;;;5036165;28;20287;-63
2022/11/22 04:15:28;;;;;;;6.77;1.80;;;;;;;;;;5014081;28;20667;-64
2022/11/22 04:17:56;;;;;;;4.03;1.67;;;;;;;;;;5018152;28;20312;-64
2022/11/22 04:23:10;;;;;;;6.93;2.00;;;;;;;;;;5044832;28;26022;-62
2022/11/22 04:25:39;;;;;;;6.43;2.20;;;;;;;;;;5035164;28;20222;-64
2022/11/22 04:28:08;;;;;;;4.93;1.47;;;;;;;;;;5035562;28;20225;-62
2022/11/22 04:33:22;;;;;;;8.40;1.90;;;;;;;;;;5049380;28;20779;-63
2022/11/22 04:35:50;;;;;;;6.00;2.03;;;;;;;;;;5026139;28;20338;-63
2022/11/22 04:38:18;;;;;;;6.50;1.93;;;;;;;;;;5016619;28;20210;-63
2022/11/22 04:40:45;;;;;;;6.67;2.33;;;;;;;;;;5023686;28;20722;-64
2022/11/22 04:46:05;;;;;;;8.93;3.33;;;;;;;;;;5029338;28;20376;-62
2022/11/22 04:48:32;;;;;;;4.23;1.77;;;;;;;;;;5004060;28;20217;-61
2022/11/22 04:53:51;;;;;;;6.17;2.00;;;;;;;;;;4988848;28;20753;-63
2022/11/22 04:56:18;;;;;;;8.43;1.83;;;;;;;;;;5027254;28;20417;-62
2022/11/22 04:58:46;;;;;;;6.80;1.70;;;;;;;;;;5039256;28;20228;-62
2022/11/22 05:01:14;;;;;;;12.77;1.93;;;;;;;;;;5034949;28;20198;-64
2022/11/22 05:03:41;;;;;;;4.33;1.87;;;;;;;;;;5029767;28;20214;-62
2022/11/22 05:06:11;;;;;;;6.90;1.80;;;;;;;;;;5020035;28;20309;-63
2022/11/22 05:08:38;;;;;;;5.87;1.90;;;;;;;;;;5018570;28;20229;-62
2022/11/22 05:11:06;;;;;;;9.07;2.10;;;;;;;;;;4999207;28;20295;-63
2022/11/22 05:13:37;;;;;;;6.07;1.77;;;;;;;;;;5009779;28;20332;-63
2022/11/22 05:16:06;;;;;;;6.63;2.10;;;;;;;;;;5005543;28;20238;-63
2022/11/22 05:18:33;;;;;;;6.63;2.13;;;;;;;;;;5036026;28;20276;-62
2022/11/22 05:21:05;;;;;;;4.03;1.80;;;;;;;;;;5012938;28;20432;-64
2022/11/22 05:23:55;;;;;;;5.00;2.10;;;;;;;;;;5011078;28;21669;-64
2022/11/22 05:26:26;;;;;;;6.50;2.30;;;;;;;;;;5013581;28;20217;-64
2022/11/22 05:28:54;;;;;;;4.17;1.70;;;;;;;;;;5006254;28;20201;-63
2022/11/22 05:31:23;;;;;;;5.33;1.70;;;;;;;;;;5012386;28;20570;-63
2022/11/22 05:33:51;;;;;;;4.57;1.40;;;;;;;;;;5010745;28;20963;-62
2022/11/22 05:36:19;;;;;;;8.53;1.90;;;;;;;;;;5028538;28;20206;-64
2022/11/22 05:38:47;;;;;;;6.80;1.87;;;;;;;;;;5008390;28;20321;-62
2022/11/22 05:41:15;;;;;;;9.70;1.97;;;;;;;;;;5031445;28;20292;-63
2022/11/22 05:43:43;;;;;;;6.10;2.53;;;;;;;;;;5009641;28;20214;-62
2022/11/22 05:46:16;;;;;;;4.20;2.03;;;;;;;;;;5029607;28;20296;-64
2022/11/22 05:48:50;;;;;;;6.87;2.00;;;;;;;;;;5014006;28;20210;-63
2022/11/22 05:51:19;;;;;;;6.73;1.70;;;;;;;;;;5004548;28;20210;-63
2022/11/22 05:53:46;;;;;;;7.83;2.10;;;;;;;;;;5027009;28;20290;-63
2022/11/22 05:56:15;;;;;;;7.93;2.07;;;;;;;;;;5023566;28;20202;-62
2022/11/22 05:58:42;;;;;;;5.87;2.43;;;;;;;;;;5030116;28;20205;-64
2022/11/22 06:01:17;;;;;;;7.87;4.17;;;;;;;;;;5011166;28;20707;-62
2022/11/22 06:03:45;;;;;;;11.97;6.20;;;;;;;;;;5016771;28;20198;-63
2022/11/22 06:06:13;;;;;;;14.17;7.93;;;;;;;;;;5027800;28;20246;-62
2022/11/22 06:08:42;;;;;;;12.50;6.73;;;;;;;;;;5028513;28;20765;-62
2022/11/22 06:11:12;;;;;;;9.63;6.33;;;;;;;;;;5029371;28;20590;-63
2022/11/22 06:13:40;;;;;;;14.00;6.40;;;;;;;;;;5032576;28;20214;-62
2022/11/22 06:16:08;;;;;;;8.90;3.10;;;;;;;;;;5029409;28;20211;-62
2022/11/22 06:18:35;;;;;;;9.37;3.13;;;;;;;;;;5044511;28;20307;-63
2022/11/22 06:21:04;;;;;;;5.93;2.40;;;;;;;;;;5010656;28;21109;-63
2022/11/22 06:23:32;;;;;;;5.43;2.07;;;;;;;;;;5031584;28;20240;-64
2022/11/22 06:26:00;;;;;;;5.97;1.70;;;;;;;;;;5012435;28;20302;-62
2022/11/22 06:28:32;;;;;;;5.87;1.90;;;;;;;;;;5021704;28;21070;-62
2022/11/22 06:31:03;;;;;;;4.23;1.97;;;;;;;;;;5012079;28;20293;-63
2022/11/22 06:33:30;;;;;;;3.63;2.27;;;;;;;;;;5012127;28;20888;-62
2022/11/22 06:36:17;;;;;;;7.57;2.40;;;;;;;;;;5008465;28;20210;-62
2022/11/22 06:38:45;;;;;;;3.37;1.83;;;;;;;;;;5028838;28;20309;-63
2022/11/22 06:41:14;;;;;;;4.27;1.77;;;;;;;;;;5008963;28;20708;-63
2022/11/22 06:43:42;;;;;;;5.60;1.53;;;;;;;;;;5008009;28;20225;-62
2022/11/22 06:46:15;;;;;;;8.33;2.33;;;;;;;;;;5014651;28;20787;-64
2022/11/22 06:48:43;;;;;;;5.70;1.50;;;;;;;;;;5007094;28;20297;-63
2022/11/22 06:51:14;;;;;;;4.73;1.57;;;;;;;;;;5009348;28;20227;-65
2022/11/22 06:53:42;;;;;;;4.27;1.50;;;;;;;;;;5012374;28;20206;-63
2022/11/22 06:56:16;;;;;;;5.37;1.50;;;;;;;;;;5025569;28;20214;-64
2022/11/22 06:58:44;;;;;;;4.00;1.80;;;;;;;;;;5047780;28;20237;-63
2022/11/22 07:01:16;;;;;;;6.67;2.17;;;;;;;;;;5031734;28;20253;-63
2022/11/22 07:03:44;;;;;;;8.23;2.20;;;;;;;;;;5041086;28;20202;-63
2022/11/22 07:06:12;;;;;;;7.27;2.47;;;;;;;;;;5037714;28;20301;-64
2022/11/22 07:08:39;;;;;;;6.20;2.50;;;;;;;;;;5010601;28;20214;-64
2022/11/22 07:11:11;;;;;;;4.17;2.10;;;;;;;;;;5000958;28;20214;-63
2022/11/22 07:13:38;;;;;;;3.87;2.07;;;;;;;;;;5022637;28;20241;-63
2022/11/22 07:16:07;;;;;;;5.80;2.20;;;;;;;;;;5011034;28;20230;-63
2022/11/22 07:18:34;;;;;;;6.67;2.20;;;;;;;;;;5010157;28;20218;-63
2022/11/22 07:21:03;;;;;;;8.83;2.20;;;;;;;;;;5027059;28;20230;-63
2022/11/22 07:23:38;;;;;;;3.13;1.37;;;;;;;;;;5012336;28;20225;-62
2022/11/22 07:26:06;;;;;;;7.17;1.60;;;;;;;;;;5005862;28;20376;-62
2022/11/22 07:28:33;;;;;;;6.80;1.83;;;;;;;;;;5023775;28;20200;-63
2022/11/22 07:31:02;;;;;;;7.87;2.03;;;;;;;;;;5015703;28;20860;-61
2022/11/22 07:33:29;;;;;;;7.40;2.30;;;;;;;;;;5013740;28;20317;-64
2022/11/22 07:36:03;;;;;;;6.70;2.67;;;;;;;;;;5016029;28;20688;-62
2022/11/22 07:38:30;;;;;;;4.07;2.10;;;;;;;;;;5011770;28;20579;-62
2022/11/22 07:40:57;;;;;;;3.93;1.90;;;;;;;;;;5014098;28;20712;-64
2022/11/22 07:43:25;;;;;;;3.33;1.90;;;;;;;;;;5013612;28;20237;-62
2022/11/22 07:45:52;;;;;;;2.27;1.60;;;;;;;;;;5014615;28;20307;-63
2022/11/22 07:48:20;;;;;;;4.37;1.87;;;;;;;;;;5013091;28;20202;-62
2022/11/22 07:50:47;;;;;;;5.73;2.23;;;;;;;;;;5030933;28;20301;-62
2022/11/22 07:53:14;;;;;;;5.83;2.17;;;;;;;;;;5028082;28;20263;-63
2022/11/22 07:55:42;;;;;;;5.63;1.80;;;;;;;;;;5009166;28;20217;-61
2022/11/22 07:58:09;;;;;;;6.37;2.47;;;;;;;;;;5009221;28;20309;-63
2022/11/22 08:00:36;;;;;;;4.97;2.70;;;;;;;;;;5030703;28;20390;-64
2022/11/22 08:03:04;;;;;;;7.07;2.50;;;;;;;;;;5011180;28;20328;-62
2022/11/22 08:05:31;;;;;;;6.73;3.33;;;;;;;;;;5019881;28;20284;-62
2022/11/22 08:07:58;;;;;;;5.47;3.70;;;;;;;;;;5038559;28;20399;-62
2022/11/22 08:10:25;;;;;;;7.77;3.23;;;;;;;;;;5022452;28;20851;-61
2022/11/22 08:12:53;;;;;;;4.00;2.87;;;;;;;;;;5023756;28;20359;-63
2022/11/22 08:15:20;;;;;;;4.13;3.47;;;;;;;;;;5021854;28;20642;-65
2022/11/22 08:17:47;;;;;;;5.77;3.10;;;;;;;;;;5030658;28;20228;-63
2022/11/22 08:20:15;;;;;;;8.03;3.73;;;;;;;;;;5029637;28;20225;-62
2022/11/22 08:22:42;;;;;;;6.57;3.87;;;;;;;;;;5012982;28;20284;-64
2022/11/22 08:25:12;;;;;;;8.57;3.63;;;;;;;;;;5027267;28;20202;-63
2022/11/22 08:27:40;;;;;;;8.90;3.40;;;;;;;;;;5016230;28;20238;-63
2022/11/22 08:30:08;;;;;;;6.73;4.07;;;;;;;;;;5013275;28;20325;-63
2022/11/22 08:32:35;;;;;;;5.87;3.90;;;;;;;;;;5034748;28;20341;-63
2022/11/22 08:35:03;;;;;;;4.97;4.10;;;;;;;;;;5034002;28;20292;-63
2022/11/22 08:37:31;;;;;;;6.93;4.17;;;;;;;;;;5030972;28;20202;-63
2022/11/22 08:39:58;;;;;;;8.33;3.67;;;;;;;;;;5030361;28;20234;-64
2022/11/22 08:42:26;;;;;;;4.93;3.53;;;;;;;;;;5030882;28;20371;-64
2022/11/22 08:44:54;;;;;;;7.20;4.87;;;;;;;;;;5031058;28;20213;-64
2022/11/22 08:47:22;;;;;;;9.13;4.00;;;;;;;;;;5008146;28;20208;-63
2022/11/22 08:49:49;;;;;;;5.53;3.93;;;;;;;;;;5009290;28;22751;-64
2022/11/22 08:52:16;;;;;;;7.17;3.53;;;;;;;;;;5025765;28;20309;-63
2022/11/22 08:54:44;;;;;;;8.33;3.40;;;;;;;;;;5026779;28;20209;-64
2022/11/22 08:57:11;;;;;;;6.50;3.40;;;;;;;;;;5031077;28;20206;-63
2022/11/22 08:59:38;;;;;;;6.07;3.07;;;;;;;;;;5026940;28;20290;-65
2022/11/22 09:02:06;;;;;;;6.77;3.60;;;;;;;;;;5033244;28;20245;-63
2022/11/22 09:04:33;;;;;;;5.77;4.00;;;;;;;;;;5043341;28;20199;-63
2022/11/22 09:07:01;;;;;;;8.93;3.40;;;;;;;;;;5028764;28;20723;-62
2022/11/22 09:09:48;;;;;;;6.40;3.50;;;;;;;;;;5017351;28;20526;-62
2022/11/22 09:12:15;;;;;;;11.30;4.97;;;;;;;;;;5012532;28;20226;-62
2022/11/22 09:14:43;;;;;;;8.53;4.40;;;;;;;;;;5010338;28;20718;-64
2022/11/22 09:17:10;;;;;;;10.03;4.93;;;;;;;;;;5009088;28;20306;-63
2022/11/22 09:19:43;;;;;;;9.47;4.90;;;;;;;;;;5025830;28;20233;-62
2022/11/22 09:22:11;;;;;;;11.33;4.87;;;;;;;;;;5008865;28;20320;-63
2022/11/22 09:24:38;;;;;;;10.00;3.63;;;;;;;;;;5025560;28;20352;-63
2022/11/22 09:27:05;;;;;;;5.70;3.53;;;;;;;;;;5005097;28;20292;-63
2022/11/22 09:29:33;;;;;;;6.73;3.40;;;;;;;;;;5028302;28;20296;-63
2022/11/22 09:32:02;;;;;;;6.50;3.67;;;;;;;;;;5008084;28;20598;-63
2022/11/22 09:34:29;;;;;;;10.40;5.60;;;;;;;;;;5042973;28;20680;-63
2022/11/22 09:36:56;;;;;;;9.57;4.23;;;;;;;;;;5007580;28;20233;-64
2022/11/22 09:39:24;;;;;;;10.63;3.33;;;;;;;;;;5014511;28;20202;-63
2022/11/22 09:41:52;;;;;;;7.87;3.33;;;;;;;;;;5020621;28;20269;-64
2022/11/22 09:44:19;;;;;;;7.90;3.23;;;;;;;;;;5011942;28;20221;-64
2022/11/22 09:47:01;;;;;;;7.17;3.33;;;;;;;;;;5030716;28;20301;-62
2022/11/22 09:49:34;;;;;;;5.20;2.97;;;;;;;;;;5010683;28;20800;-64
2022/11/22 09:52:23;;;;;;;5.10;2.93;;;;;;;;;;5017788;28;20346;-62
2022/11/22 09:54:55;;;;;;;5.20;2.90;;;;;;;;;;5006244;28;20309;-62
2022/11/22 09:57:43;;;;;;;5.23;3.30;;;;;;;;;;5008678;28;20216;-62
2022/11/22 10:00:18;;;;;;;5.20;3.13;;;;;;;;;;5005712;28;20305;-63
2022/11/22 10:02:54;;;;;;;11.67;2.87;;;;;;;;;;5044680;28;20222;-63
2022/11/22 10:05:45;;;;;;;8.13;3.10;;;;;;;;;;5010510;28;20677;-64
2022/11/22 10:08:34;;;;;;;4.80;2.53;;;;;;;;;;5008653;28;20300;-64
2022/11/22 10:11:03;;;;;;;5.73;3.00;;;;;;;;;;5005552;28;20210;-64
2022/11/22 10:13:30;;;;;;;4.23;2.60;;;;;;;;;;5006547;28;21364;-63
2022/11/22 10:16:02;;;;;;;7.53;2.40;;;;;;;;;;5010999;28;20287;-63
2022/11/22 10:18:39;;;;;;;5.80;2.00;;;;;;;;;;5009307;28;20282;-63
2022/11/22 10:21:11;;;;;;;5.20;2.67;;;;;;;;;;5008460;28;20242;-63
2022/11/22 10:23:40;;;;;;;8.73;2.40;;;;;;;;;;5010843;28;20226;-62
2022/11/22 10:26:14;;;;;;;5.20;2.43;;;;;;;;;;5025677;28;20575;-61
2022/11/22 10:28:47;;;;;;;6.73;2.13;;;;;;;;;;5005286;28;21001;-63
2022/11/22 10:31:20;;;;;;;5.03;2.30;;;;;;;;;;5008681;28;20279;-62
2022/11/22 10:33:57;;;;;;;4.47;1.93;;;;;;;;;;5005936;28;20238;-63
2022/11/22 10:36:30;;;;;;;3.40;2.17;;;;;;;;;;5021796;28;20300;-64
2022/11/22 10:39:02;;;;;;;7.23;2.20;;;;;;;;;;5004910;28;20304;-63
2022/11/22 10:41:32;;;;;;;6.80;1.93;;;;;;;;;;5030688;28;20253;-63
2022/11/22 10:44:13;;;;;;;3.37;1.70;;;;;;;;;;5016838;28;20301;-64
2022/11/22 10:46:44;;;;;;;4.27;1.70;;;;;;;;;;5012770;28;20302;-64
2022/11/22 10:49:15;;;;;;;4.70;1.73;;;;;;;;;;5047677;28;20208;-63
2022/11/22 10:51:46;;;;;;;7.27;2.13;;;;;;;;;;5028604;28;20241;-63
2022/11/22 10:54:32;;;;;;;2.90;1.77;;;;;;;;;;5031306;28;20473;-63
2022/11/22 10:57:11;;;;;;;5.90;2.20;;;;;;;;;;5035541;28;20240;-64
2022/11/22 10:59:54;;;;;;;4.43;1.70;;;;;;;;;;5043307;28;20209;-62
2022/11/22 11:02:31;;;;;;;6.73;1.70;;;;;;;;;;5039383;28;20261;-63
2022/11/22 11:04:58;;;;;;;3.10;1.57;;;;;;;;;;5034733;28;20297;-62
2022/11/22 11:07:26;;;;;;;3.23;1.70;;;;;;;;;;5044647;28;20214;-62
2022/11/22 11:09:56;;;;;;;3.80;1.77;;;;;;;;;;5029708;28;20206;-62
2022/11/22 11:12:53;;;;;;;4.90;1.77;;;;;;;;;;5012842;28;20287;-63
2022/11/22 11:15:22;;;;;;;3.90;1.47;;;;;;;;;;5034270;28;20283;-64
2022/11/22 11:17:54;;;;;;;4.43;1.80;;;;;;;;;;5030505;28;20210;-63
2022/11/22 11:20:38;;;;;;;5.60;1.60;;;;;;;;;;5022981;28;20213;-63
2022/11/22 11:23:05;;;;;;;3.23;1.27;;;;;;;;;;5028114;28;20301;-63
2022/11/22 11:25:42;;;;;;;6.83;2.43;;;;;;;;;;5033191;28;20201;-64
2022/11/22 11:28:18;;;;;;;7.77;2.47;;;;;;;;;;5031182;28;20281;-63
2022/11/22 11:30:47;;;;;;;5.97;2.50;;;;;;;;;;5038995;28;20255;-63
2022/11/22 11:33:20;;;;;;;2.10;1.37;;;;;;;;;;5027199;28;20787;-63
2022/11/22 11:35:47;;;;;;;8.07;2.60;;;;;;;;;;5059434;28;20295;-62
2022/11/22 11:38:44;;;;;;;4.87;2.17;;;;;;;;;;5026163;28;20246;-61
2022/11/22 11:41:31;;;;;;;8.50;2.10;;;;;;;;;;5021187;28;20253;-63
2022/11/22 11:44:00;;;;;;;4.43;2.00;;;;;;;;;;5011294;28;20293;-63
2022/11/22 11:46:28;;;;;;;3.87;1.50;;;;;;;;;;5015552;28;20221;-61
2022/11/22 11:49:16;;;;;;;7.73;2.13;;;;;;;;;;5027943;28;20595;-64
2022/11/22 11:51:43;;;;;;;7.30;2.57;;;;;;;;;;5025724;28;20342;-63
2022/11/22 11:54:16;;;;;;;4.27;1.80;;;;;;;;;;5046542;28;20942;-62
2022/11/22 11:56:51;;;;;;;4.17;1.93;;;;;;;;;;5017010;28;20202;-63
2022/11/22 11:59:20;;;;;;;3.13;2.10;;;;;;;;;;5032993;28;20305;-62
2022/11/22 12:01:54;;;;;;;4.07;2.90;;;;;;;;;;5029882;28;20442;-62
2022/11/22 12:04:24;;;;;;;7.57;2.17;;;;;;;;;;5007847;28;20265;-63
2022/11/22 12:07:01;;;;;;;7.53;2.57;;;;;;;;;;5012997;28;20206;-63
2022/11/22 12:09:31;;;;;;;5.67;2.43;;;;;;;;;;5013808;28;20281;-63
2022/11/22 12:12:02;;;;;;;4.70;2.60;;;;;;;;;;5027534;28;20332;-63
2022/11/22 12:14:30;;;;;;;4.50;2.37;;;;;;;;;;5019295;28;20222;-62
2022/11/22 12:17:23;;;;;;;4.67;2.30;;;;;;;;;;5020998;28;20750;-62
2022/11/22 12:20:02;;;;;;;5.73;2.50;;;;;;;;;;5032137;28;20207;-63
2022/11/22 12:22:29;;;;;;;8.00;3.97;;;;;;;;;;5043746;28;20320;-64
2022/11/22 12:25:36;;;;;;;6.93;2.70;;;;;;;;;;5031194;28;20237;-62
2022/11/22 12:28:10;;;;;;;6.47;3.70;;;;;;;;;;5031436;28;20202;-62
2022/11/22 12:30:39;;;;;;;3.23;1.97;;;;;;;;;;5048516;28;20225;-64
2022/11/22 12:33:07;;;;;;;4.70;1.70;;;;;;;;;;5058625;28;20233;-63
2022/11/22 12:35:42;;;;;;;5.30;1.90;;;;;;;;;;5026480;28;20287;-63
2022/11/22 12:38:18;;;;;;;3.90;2.47;;;;;;;;;;5050047;28;20198;-63
2022/11/22 12:40:47;;;;;;;8.47;2.93;;;;;;;;;;5036700;28;20193;-64
2022/11/22 12:43:24;;;;;;;4.57;2.33;;;;;;;;;;5050315;28;20316;-63
2022/11/22 12:45:53;;;;;;;3.97;1.80;;;;;;;;;;5043221;28;20267;-63
2022/11/22 12:48:22;;;;;;;6.03;2.10;;;;;;;;;;5007641;28;20216;-67
2022/11/22 12:50:54;;;;;;;5.57;1.90;;;;;;;;;;5011033;28;20228;-63
2022/11/22 12:53:34;;;;;;;8.00;3.30;;;;;;;;;;5009882;28;20622;-63
2022/11/22 12:56:17;;;;;;;6.73;2.70;;;;;;;;;;5004166;28;20952;-63
2022/11/22 12:58:51;;;;;;;9.67;1.90;;;;;;;;;;5042735;28;20286;-62
2022/11/22 13:01:21;;;;;;;41.10;20.43;;;;;;;;;;5028570;28;20614;-63
2022/11/22 13:03:56;;;;;;;7.13;3.00;;;;;;;;;;5051309;28;20289;-63
2022/11/22 13:06:24;;;;;;;6.17;3.10;;;;;;;;;;5028502;28;20735;-62
2022/11/22 13:08:58;;;;;;;11.17;6.13;;;;;;;;;;5041098;28;20229;-63
2022/11/22 13:11:32;;;;;;;4.73;2.77;;;;;;;;;;5012083;28;20209;-62
2022/11/22 13:14:19;;;;;;;6.27;3.67;;;;;;;;;;5027368;28;20206;-64
2022/11/22 13:16:49;;;;;;;4.10;2.40;;;;;;;;;;5046513;28;20290;-63
2022/11/22 13:19:17;;;;;;;4.70;3.33;;;;;;;;;;5055316;28;20214;-64
2022/11/22 13:22:02;;;;;;;3.23;2.50;;;;;;;;;;5040712;28;20664;-64
2022/11/22 13:24:46;;;;;;;2.70;1.57;;;;;;;;;;5025946;28;20296;-64
2022/11/22 13:27:18;;;;;;;4.03;2.57;;;;;;;;;;5013893;28;20676;-63
2022/11/22 13:29:46;;;;;;;3.83;1.90;;;;;;;;;;5012771;28;20209;-64
2022/11/22 13:32:21;;;;;;;2.30;1.20;;;;;;;;;;5014213;28;20720;-64
2022/11/22 13:35:06;;;;;;;1.57;1.47;;;;;;;;;;5015826;28;20206;-63
2022/11/22 13:37:39;;;;;;;2.30;1.37;;;;;;;;;;5036050;28;20570;-64
2022/11/22 13:40:16;;;;;;;2.03;1.40;;;;;;;;;;5031335;28;20232;-63
2022/11/22 13:42:43;;;;;;;2.60;1.33;;;;;;;;;;5014208;28;20245;-65
2022/11/22 13:45:21;;;;;;;1.20;1.10;;;;;;;;;;5030982;28;20230;-63
2022/11/22 13:47:48;;;;;;;2.00;1.57;;;;;;;;;;5014343;28;20210;-63
2022/11/22 13:50:34;;;;;;;1.20;1.10;;;;;;;;;;5046842;28;20346;-62
2022/11/22 13:53:20;;;;;;;2.97;1.20;;;;;;;;;;5031560;28;20570;-62
2022/11/22 13:55:48;;;;;;;3.53;1.03;;;;;;;;;;5009961;28;20301;-62
2022/11/22 13:58:24;;;;;;;0.80;0.80;;;;;;;;;;5014831;28;20276;-62
2022/11/22 14:00:52;;;;;;;1.53;0.90;;;;;;;;;;5042928;28;20202;-63
2022/11/22 14:03:19;;;;;;;3.07;1.10;;;;;;;;;;5014259;28;20337;-62
2022/11/22 14:05:51;;;;;;;1.57;1.10;;;;;;;;;;5009735;28;20210;-63
2022/11/22 14:08:33;;;;;;;2.17;1.13;;;;;;;;;;5013194;28;20725;-62
2022/11/22 14:11:00;;;;;;;1.07;0.93;;;;;;;;;;5012789;28;20323;-64
2022/11/22 14:13:28;;;;;;;1.33;1.00;;;;;;;;;;5010930;28;20257;-62
2022/11/22 14:16:14;;;;;;;1.43;0.90;;;;;;;;;;5013409;28;20652;-64
2022/11/22 14:18:45;;;;;;;2.37;1.10;;;;;;;;;;5017061;28;20301;-64
2022/11/22 14:21:28;;;;;;;2.90;0.97;;;;;;;;;;5008799;28;20214;-62
2022/11/22 14:24:17;;;;;;;2.00;0.90;;;;;;;;;;5029581;28;20739;-63
2022/11/22 14:26:54;;;;;;;4.53;1.10;;;;;;;;;;5026816;28;20881;-61
2022/11/22 14:29:40;;;;;;;1.00;1.00;;;;;;;;;;5023405;28;20283;-63
2022/11/22 14:32:14;;;;;;;1.63;1.17;;;;;;;;;;5006259;28;20691;-63
2022/11/22 14:35:00;;;;;;;1.53;1.10;;;;;;;;;;5014118;28;20324;-64
2022/11/22 14:37:31;;;;;;;1.20;1.10;;;;;;;;;;5010468;28;20201;-64
2022/11/22 14:40:04;;;;;;;2.13;1.20;;;;;;;;;;5013492;28;20218;-63
2022/11/22 14:42:57;;;;;;;1.57;1.10;;;;;;;;;;5013884;28;20229;-64
2022/11/22 14:45:29;;;;;;;1.63;1.00;;;;;;;;;;5032564;28;20198;-64
2022/11/22 14:47:59;;;;;;;0.90;0.90;;;;;;;;;;5029391;28;20252;-64
2022/11/22 14:50:38;;;;;;;1.83;1.00;;;;;;;;;;5010916;28;20263;-62
2022/11/22 14:53:05;;;;;;;1.50;1.00;;;;;;;;;;5013134;28;20233;-64
2022/11/22 14:55:34;;;;;;;3.73;1.20;;;;;;;;;;5001971;28;20309;-62
2022/11/22 14:58:05;;;;;;;2.30;1.20;;;;;;;;;;5033397;28;20689;-63
2022/11/22 15:00:48;;;;;;;1.77;1.10;;;;;;;;;;5040950;28;20313;-64
2022/11/22 15:03:51;;;;;;;1.07;0.90;;;;;;;;;;5035892;28;20317;-63
2022/11/22 15:06:41;;;;;;;2.80;1.10;;;;;;;;;;4984283;28;20199;-62
2022/11/22 15:09:29;;;;;;;5.93;1.67;;;;;;;;;;5026257;28;20204;-63
2022/11/22 15:12:25;;;;;;;1.40;1.03;;;;;;;;;;5015082;28;20222;-63
2022/11/22 15:14:53;;;;;;;3.33;1.00;;;;;;;;;;5031108;28;20292;-64